LTBJ/ADB METAR and TAF weather

Enter ICAO airport designator
Station Type Date Time Source
LTBJ METAR 2019/12/16 05:50 UTC NOAA

LTBJ 160550Z 00000KT 7000 3000S BR NSC 04/03 Q1026 NOSIG


Station Type Date Time Source
LTBJ Decoded METAR 2019/12/16 05:50 UTC NOAA

Izmir / Adnan Menderes, Turkey (LTBJ) 38-16N 027-09E 120M
Dec 16, 2019 - 12:50 AM EST / 2019.12.16 0550 UTC
Wind: Calm:0
Visibility: 4 mile(s):0
Weather: mist
Temperature: 39 F (4 C)
Dew Point: 37 F (3 C)
Relative Humidity: 93%
Pressure (altimeter): 30.30 in. Hg (1026 hPa)
ob: LTBJ 160550Z 00000KT 7000 3000S BR NSC 04/03 Q1026 NOSIG
cycle: 6

Station Type Date Time Source
LTBJ TAF 2019/12/16 06:03 UTC NOAA

TAF LTBJ 160440Z 1606/1706 VRB02KT CAVOK
BECMG 1610/1612 36012KT
BECMG 1615/1617 VRB02KT PROB40 1702/1706 4000 BR

Example: see airport list